Time,TemperatureF,DewpointF,PressureIn,WindDirection,WindDirectionDegrees,WindSpeedMPH,WindSpeedGustMPH,Humidity,HourlyPrecipIn,Conditions,Clouds,dailyrainin,SoftwareType,DateUTC
2013-01-30 00:04:00,26.4,-1.5,30.23,NNW,342,8.1,8.1,29,0.00,,,0.00,VWS V14.01,2013-01-30 06:04:00,
2013-01-30 00:09:00,26.4,-1.5,30.23,North,3,10.1,10.1,29,0.00,,,0.00,VWS V14.01,2013-01-30 06:09:00,
2013-01-30 00:14:00,26.2,-1.7,30.23,WNW,303,10.1,10.1,29,0.00,,,0.00,VWS V14.01,2013-01-30 06:14:00,
2013-01-30 00:19:00,26.1,-1.8,30.23,NNW,336,11.0,15.9,29,0.00,,,0.00,VWS V14.01,2013-01-30 06:19:00,
2013-01-30 00:24:00,26.1,-1.8,30.23,North,6,8.7,11.0,29,0.00,,,0.00,VWS V14.01,2013-01-30 06:24:00,
2013-01-30 00:29:00,25.9,-2.0,30.20,North,0,8.3,12.3,29,0.00,,,0.00,VWS V14.01,2013-01-30 06:29:00,
2013-01-30 00:34:00,25.9,-0.6,30.20,NW,314,8.7,8.7,31,0.00,,,0.00,VWS V14.01,2013-01-30 06:34:00,
2013-01-30 00:39:00,25.7,-0.7,30.20,North,1,10.1,11.0,31,0.00,,,0.00,VWS V14.01,2013-01-30 06:39:00,
2013-01-30 00:44:00,25.5,-2.3,30.23,NNE,14,13.2,16.3,29,0.00,,,0.00,VWS V14.01,2013-01-30 06:44:00,
2013-01-30 00:49:00,25.5,-2.3,30.23,North,10,7.6,14.5,29,0.00,,,0.00,VWS V14.01,2013-01-30 06:49:00,
2013-01-30 00:54:00,25.3,-2.5,30.23,NNW,330,8.1,13.2,29,0.00,,,0.00,VWS V14.01,2013-01-30 06:54:00,
2013-01-30 00:59:00,25.2,-2.6,30.17,North,0,10.1,12.8,29,0.00,,,0.00,VWS V14.01,2013-01-30 06:59:00,
2013-01-30 01:04:00,25.2,-1.2,30.17,NNW,331,6.3,11.0,31,0.00,,,0.00,VWS V14.01,2013-01-30 07:04:00,
2013-01-30 01:09:00,25.0,-1.4,30.17,North,357,4.0,7.6,31,0.00,,,0.00,VWS V14.01,2013-01-30 07:09:00,
2013-01-30 01:14:00,24.8,-0.9,30.17,NNW,343,8.1,8.1,32,0.00,,,0.00,VWS V14.01,2013-01-30 07:14:00,
2013-01-30 01:19:00,24.4,-1.2,30.17,NNW,340,10.5,10.5,32,0.00,,,0.00,VWS V14.01,2013-01-30 07:19:00,
2013-01-30 01:24:00,24.4,-1.2,30.17,North,350,12.8,12.8,32,0.00,,,0.00,VWS V14.01,2013-01-30 07:24:00,
2013-01-30 01:29:00,24.3,-1.3,30.20,NNE,14,13.2,14.1,32,0.00,,,0.00,VWS V14.01,2013-01-30 07:29:00,
2013-01-30 01:34:00,24.1,-1.5,30.20,NNW,334,10.5,11.0,32,0.00,,,0.00,VWS V14.01,2013-01-30 07:34:00,
2013-01-30 01:39:00,24.1,-1.5,30.20,NNW,343,8.7,8.7,32,0.00,,,0.00,VWS V14.01,2013-01-30 07:39:00,
2013-01-30 01:45:00,23.9,-1.7,30.17,NNW,343,10.1,10.1,32,0.00,,,0.00,VWS V14.01,2013-01-30 07:45:00,
2013-01-30 01:50:00,23.9,-1.7,30.17,NNW,339,8.3,8.3,32,0.00,,,0.00,VWS V14.01,2013-01-30 07:50:00,
2013-01-30 01:55:00,23.7,-1.8,30.20,North,353,5.8,8.1,32,0.00,,,0.00,VWS V14.01,2013-01-30 07:55:00,
2013-01-30 02:00:00,23.5,-1.3,30.20,North,3,7.6,9.6,33,0.00,,,0.00,VWS V14.01,2013-01-30 08:00:00,
2013-01-30 02:05:00,23.5,-1.3,30.20,NNW,335,8.1,13.6,33,0.00,,,0.00,VWS V14.01,2013-01-30 08:05:00,
2013-01-30 02:10:00,23.5,-1.3,30.17,NNW,343,10.5,10.5,33,0.00,,,0.00,VWS V14.01,2013-01-30 08:10:00,
2013-01-30 02:15:00,23.4,-1.5,30.17,NW,319,8.7,11.0,33,0.00,,,0.00,VWS V14.01,2013-01-30 08:15:00,
2013-01-30 02:20:00,23.4,-0.9,30.17,NW,312,5.4,5.4,34,0.00,,,0.00,VWS V14.01,2013-01-30 08:20:00,
2013-01-30 02:25:00,23.4,-0.9,30.20,North,353,8.3,8.3,34,0.00,,,0.00,VWS V14.01,2013-01-30 08:25:00,
2013-01-30 02:30:00,23.2,-1.0,30.20,NW,323,8.1,10.5,34,0.00,,,0.00,VWS V14.01,2013-01-30 08:30:00,
2013-01-30 02:35:00,23.2,-0.4,30.20,North,353,9.6,9.6,35,0.00,,,0.00,VWS V14.01,2013-01-30 08:35:00,
2013-01-30 02:40:00,23.2,-0.4,30.20,North,0,8.3,10.5,35,0.00,,,0.00,VWS V14.01,2013-01-30 08:40:00,
2013-01-30 02:45:00,23.2,-0.4,30.20,NNW,327,11.4,12.8,35,0.00,,,0.00,VWS V14.01,2013-01-30 08:45:00,
2013-01-30 02:50:00,23.2,0.2,30.20,North,353,5.4,8.1,36,0.00,,,0.00,VWS V14.01,2013-01-30 08:50:00,
2013-01-30 02:55:00,23.2,0.2,30.20,NW,310,11.0,11.0,36,0.00,,,0.00,VWS V14.01,2013-01-30 08:55:00,
2013-01-30 03:01:00,23.2,0.2,30.20,NNW,343,10.1,13.6,36,0.00,,,0.00,VWS V14.01,2013-01-30 09:01:00,
2013-01-30 03:06:00,23.2,0.2,30.20,NW,325,8.1,11.0,36,0.00,,,0.00,VWS V14.01,2013-01-30 09:06:00,
2013-01-30 03:11:00,23.2,0.2,30.20,NW,318,8.1,8.3,36,0.00,,,0.00,VWS V14.01,2013-01-30 09:11:00,
2013-01-30 03:16:00,23.2,0.2,30.20,NNW,336,9.6,10.5,36,0.00,,,0.00,VWS V14.01,2013-01-30 09:16:00,
2013-01-30 03:21:00,23.0,0.0,30.20,NNW,342,10.1,14.1,36,0.00,,,0.00,VWS V14.01,2013-01-30 09:21:00,
2013-01-30 03:26:00,23.0,-0.6,30.20,NNW,337,8.1,10.1,35,0.00,,,0.00,VWS V14.01,2013-01-30 09:26:00,
2013-01-30 03:31:00,23.0,-0.6,30.20,North,0,8.1,8.3,35,0.00,,,0.00,VWS V14.01,2013-01-30 09:31:00,
2013-01-30 03:36:00,23.0,-0.6,30.20,North,349,11.0,16.8,35,0.00,,,0.00,VWS V14.01,2013-01-30 09:36:00,
2013-01-30 03:41:00,23.0,-0.6,30.17,NW,306,7.2,9.2,35,0.00,,,0.00,VWS V14.01,2013-01-30 09:41:00,
2013-01-30 03:46:00,23.0,-0.6,30.17,NW,321,16.3,16.3,35,0.00,,,0.00,VWS V14.01,2013-01-30 09:46:00,
2013-01-30 03:51:00,23.2,-0.4,30.17,NNW,344,8.1,8.1,35,0.00,,,0.00,VWS V14.01,2013-01-30 09:51:00,
2013-01-30 03:56:00,23.2,-0.4,30.20,NNW,338,11.0,11.0,35,0.00,,,0.00,VWS V14.01,2013-01-30 09:56:00,
2013-01-30 04:01:00,23.2,-0.4,30.20,NW,325,8.7,10.5,35,0.00,,,0.00,VWS V14.01,2013-01-30 10:01:00,
2013-01-30 04:06:00,23.2,-0.4,30.20,NNW,331,13.2,13.2,35,0.00,,,0.00,VWS V14.01,2013-01-30 10:06:00,
2013-01-30 04:11:00,23.2,-0.4,30.20,WNW,300,7.6,10.1,35,0.00,,,0.00,VWS V14.01,2013-01-30 10:11:00,
2013-01-30 04:16:00,23.2,0.2,30.20,NW,314,10.1,10.1,36,0.00,,,0.00,VWS V14.01,2013-01-30 10:16:00,
2013-01-30 04:21:00,23.2,0.2,30.20,NNW,331,10.1,10.1,36,0.00,,,0.00,VWS V14.01,2013-01-30 10:21:00,
2013-01-30 04:26:00,23.2,0.2,30.17,NW,322,8.3,11.0,36,0.00,,,0.00,VWS V14.01,2013-01-30 10:26:00,
2013-01-30 04:31:00,23.2,0.2,30.17,NNW,331,9.2,10.5,36,0.00,,,0.00,VWS V14.01,2013-01-30 10:31:00,
2013-01-30 04:37:00,23.0,0.0,30.17,NNW,341,10.5,12.8,36,0.00,,,0.00,VWS V14.01,2013-01-30 10:37:00,
2013-01-30 04:42:00,23.0,-0.6,30.17,North,353,8.1,11.0,35,0.00,,,0.00,VWS V14.01,2013-01-30 10:42:00,
2013-01-30 04:47:00,22.8,-0.1,30.17,NW,313,10.1,11.4,36,0.00,,,0.00,VWS V14.01,2013-01-30 10:47:00,
2013-01-30 04:52:00,22.6,-0.9,30.17,NW,322,11.0,11.0,35,0.00,,,0.00,VWS V14.01,2013-01-30 10:52:00,
2013-01-30 04:57:00,22.3,-2.4,30.17,NNW,344,18.8,18.8,33,0.00,,,0.00,VWS V14.01,2013-01-30 10:57:00,
2013-01-30 05:02:00,21.9,-2.8,30.17,NNW,345,17.4,17.4,33,0.00,,,0.00,VWS V14.01,2013-01-30 11:02:00,
2013-01-30 05:07:00,21.9,-2.8,30.17,NNW,342,11.9,15.4,33,0.00,,,0.00,VWS V14.01,2013-01-30 11:07:00,
2013-01-30 05:12:00,21.9,-2.8,30.17,North,0,8.3,8.3,33,0.00,,,0.00,VWS V14.01,2013-01-30 11:12:00,
2013-01-30 05:17:00,21.7,-1.7,30.17,North,4,13.2,13.2,35,0.00,,,0.00,VWS V14.01,2013-01-30 11:17:00,
2013-01-30 05:22:00,21.6,-1.9,30.17,NNW,342,17.4,17.4,35,0.00,,,0.00,VWS V14.01,2013-01-30 11:22:00,
2013-01-30 05:27:00,21.4,-2.0,30.17,North,350,10.5,13.2,35,0.00,,,0.00,VWS V14.01,2013-01-30 11:27:00,
2013-01-30 05:32:00,21.2,-2.2,30.17,NW,321,10.5,10.5,35,0.00,,,0.00,VWS V14.01,2013-01-30 11:32:00,
2013-01-30 05:37:00,21.0,-2.9,30.17,NW,321,8.1,11.0,34,0.00,,,0.00,VWS V14.01,2013-01-30 11:37:00,
2013-01-30 05:43:00,20.7,-3.3,30.20,NW,320,13.2,15.0,34,0.00,,,0.00,VWS V14.01,2013-01-30 11:43:00,
2013-01-30 05:48:00,20.7,-3.3,30.20,NW,308,13.2,13.2,34,0.00,,,0.00,VWS V14.01,2013-01-30 11:48:00,
2013-01-30 05:53:00,20.5,-3.4,30.20,NNW,343,8.3,9.6,34,0.00,,,0.00,VWS V14.01,2013-01-30 11:53:00,
2013-01-30 05:58:00,20.3,-3.6,30.20,NW,318,12.8,15.0,34,0.00,,,0.00,VWS V14.01,2013-01-30 11:58:00,
2013-01-30 06:03:00,20.1,-3.7,30.20,NNW,344,10.1,10.5,34,0.00,,,0.00,VWS V14.01,2013-01-30 12:03:00,
2013-01-30 06:08:00,19.9,-3.9,30.20,NW,307,15.0,15.4,34,0.00,,,0.00,VWS V14.01,2013-01-30 12:08:00,
2013-01-30 06:13:00,19.6,-4.2,30.20,NNW,327,8.7,8.7,34,0.00,,,0.00,VWS V14.01,2013-01-30 12:13:00,
2013-01-30 06:18:00,19.4,-3.8,30.20,NW,317,8.7,8.7,35,0.00,,,0.00,VWS V14.01,2013-01-30 12:18:00,
2013-01-30 06:23:00,19.2,-4.5,30.20,NNW,339,12.8,12.8,34,0.00,,,0.00,VWS V14.01,2013-01-30 12:23:00,
2013-01-30 06:28:00,18.9,-5.5,30.20,WNW,291,15.4,15.4,33,0.00,,,0.00,VWS V14.01,2013-01-30 12:28:00,
2013-01-30 06:33:00,18.5,-5.8,30.20,North,0,15.4,15.4,33,0.00,,,0.00,VWS V14.01,2013-01-30 12:33:00,
2013-01-30 06:38:00,18.1,-8.1,30.20,NNW,344,11.0,15.4,30,0.00,,,0.00,VWS V14.01,2013-01-30 12:38:00,
2013-01-30 06:43:00,17.8,-8.4,30.17,NNW,332,8.3,11.0,30,0.00,,,0.00,VWS V14.01,2013-01-30 12:43:00,
2013-01-30 06:48:00,17.6,-9.9,30.17,NNW,329,16.8,16.8,28,0.00,,,0.00,VWS V14.01,2013-01-30 12:48:00,
2013-01-30 06:53:00,17.2,-10.3,30.17,NNW,342,12.3,19.7,28,0.00,,,0.00,VWS V14.01,2013-01-30 12:53:00,
2013-01-30 06:58:00,16.9,-12.1,30.17,North,353,17.4,17.4,26,0.00,,,0.00,VWS V14.01,2013-01-30 12:58:00,
2013-01-30 07:03:00,16.7,-12.2,30.17,NNW,328,15.4,22.4,26,0.00,,,0.00,VWS V14.01,2013-01-30 13:03:00,
2013-01-30 07:08:00,16.5,-12.4,30.17,NNW,335,14.1,22.8,26,0.00,,,0.00,VWS V14.01,2013-01-30 13:08:00,
2013-01-30 07:13:00,16.2,-12.7,30.17,NNW,344,17.0,19.2,26,0.00,,,0.00,VWS V14.01,2013-01-30 13:13:00,
2013-01-30 07:18:00,16.0,-12.8,30.17,NW,305,13.6,17.0,26,0.00,,,0.00,VWS V14.01,2013-01-30 13:18:00,
2013-01-30 07:23:00,16.0,-12.8,30.17,North,357,7.6,12.8,26,0.00,,,0.00,VWS V14.01,2013-01-30 13:23:00,
2013-01-30 07:28:00,16.0,-12.8,30.17,NW,315,10.1,10.1,26,0.00,,,0.00,VWS V14.01,2013-01-30 13:28:00,
2013-01-30 07:33:00,15.8,-13.0,30.17,NW,310,12.3,12.3,26,0.00,,,0.00,VWS V14.01,2013-01-30 13:33:00,
2013-01-30 07:38:00,15.8,-13.0,30.17,NW,316,11.0,11.0,26,0.00,,,0.00,VWS V14.01,2013-01-30 13:38:00,
2013-01-30 07:43:00,15.6,-13.1,30.17,NNW,332,17.0,25.1,26,0.00,,,0.00,VWS V14.01,2013-01-30 13:43:00,
2013-01-30 07:48:00,15.4,-13.3,30.17,NNW,342,16.3,16.3,26,0.00,,,0.00,VWS V14.01,2013-01-30 13:48:00,
2013-01-30 07:53:00,15.4,-11.1,30.17,NNW,333,19.2,19.2,29,0.00,,,0.00,VWS V14.01,2013-01-30 13:53:00,
2013-01-30 07:58:00,15.4,-11.1,30.17,NNW,345,15.0,16.8,29,0.00,,,0.00,VWS V14.01,2013-01-30 13:58:00,
2013-01-30 08:03:00,15.3,-11.3,30.17,North,353,8.3,8.3,29,0.00,,,0.00,VWS V14.01,2013-01-30 14:03:00,
2013-01-30 08:08:00,15.3,-11.3,30.17,WNW,300,10.5,10.5,29,0.00,,,0.00,VWS V14.01,2013-01-30 14:08:00,
2013-01-30 08:13:00,15.3,-11.3,30.17,NW,313,16.8,17.0,29,0.00,,,0.00,VWS V14.01,2013-01-30 14:13:00,
2013-01-30 08:18:00,15.3,-11.3,30.17,NNW,342,6.3,7.6,29,0.00,,,0.00,VWS V14.01,2013-01-30 14:18:00,
2013-01-30 08:24:00,15.3,-11.3,30.17,NW,316,8.3,12.8,29,0.00,,,0.00,VWS V14.01,2013-01-30 14:24:00,
2013-01-30 08:29:00,15.3,-11.3,30.17,NNW,333,5.4,10.1,29,0.00,,,0.00,VWS V14.01,2013-01-30 14:29:00,
2013-01-30 08:34:00,15.1,-11.4,30.17,NW,319,12.3,13.6,29,0.00,,,0.00,VWS V14.01,2013-01-30 14:34:00,
2013-01-30 08:39:00,15.1,-13.6,30.17,NNW,328,11.0,11.0,26,0.00,,,0.00,VWS V14.01,2013-01-30 14:39:00,
2013-01-30 08:44:00,15.1,-13.6,30.20,NNW,333,8.3,11.0,26,0.00,,,0.00,VWS V14.01,2013-01-30 14:44:00,
2013-01-30 08:49:00,14.9,-13.8,30.20,NNW,346,12.8,16.8,26,0.00,,,0.00,VWS V14.01,2013-01-30 14:49:00,
2013-01-30 08:54:00,15.1,-13.6,30.20,NNW,339,15.4,15.4,26,0.00,,,0.00,VWS V14.01,2013-01-30 14:54:00,
2013-01-30 08:59:00,15.1,-13.6,30.17,NNW,341,19.2,19.2,26,0.00,,,0.00,VWS V14.01,2013-01-30 14:59:00,
2013-01-30 09:04:00,15.1,-15.2,30.17,NNW,330,14.1,15.9,24,0.00,,,0.00,VWS V14.01,2013-01-30 15:04:00,
2013-01-30 09:09:00,15.1,-13.6,30.17,NNW,346,11.4,14.5,26,0.00,,,0.00,VWS V14.01,2013-01-30 15:09:00,
2013-01-30 09:14:00,15.1,-13.6,30.17,NW,323,11.0,12.8,26,0.00,,,0.00,VWS V14.01,2013-01-30 15:14:00,
2013-01-30 09:19:00,15.1,-13.6,30.17,NNW,342,17.4,18.8,26,0.00,,,0.00,VWS V14.01,2013-01-30 15:19:00,
2013-01-30 09:24:00,15.1,-13.6,30.17,NW,320,15.4,15.4,26,0.00,,,0.00,VWS V14.01,2013-01-30 15:24:00,
2013-01-30 09:29:00,15.1,-13.6,30.17,NW,319,10.1,13.2,26,0.00,,,0.00,VWS V14.01,2013-01-30 15:29:00,
2013-01-30 09:35:00,15.3,-13.5,30.17,NW,325,12.3,13.6,26,0.00,,,0.00,VWS V14.01,2013-01-30 15:35:00,
2013-01-30 09:40:00,15.1,-13.6,30.17,North,353,16.8,18.8,26,0.00,,,0.00,VWS V14.01,2013-01-30 15:40:00,
2013-01-30 09:45:00,15.1,-13.6,30.17,NNW,340,10.5,12.8,26,0.00,,,0.00,VWS V14.01,2013-01-30 15:45:00,
2013-01-30 09:50:00,15.3,-13.5,30.17,NNW,333,12.3,13.2,26,0.00,,,0.00,VWS V14.01,2013-01-30 15:50:00,
2013-01-30 09:55:00,15.1,-13.6,30.17,NNW,330,17.4,17.4,26,0.00,,,0.00,VWS V14.01,2013-01-30 15:55:00,
2013-01-30 10:00:00,15.1,-13.6,30.17,NW,322,8.3,8.7,26,0.00,,,0.00,VWS V14.01,2013-01-30 16:00:00,
2013-01-30 10:05:00,15.1,-13.6,30.17,NNW,337,8.3,13.2,26,0.00,,,0.00,VWS V14.01,2013-01-30 16:05:00,
2013-01-30 10:10:00,15.1,-13.6,30.20,NNW,335,11.0,15.0,26,0.00,,,0.00,VWS V14.01,2013-01-30 16:10:00,
2013-01-30 10:15:00,15.1,-15.2,30.20,North,0,12.8,12.8,24,0.00,,,0.00,VWS V14.01,2013-01-30 16:15:00,
2013-01-30 10:20:00,14.9,-15.4,30.20,NW,324,8.1,9.2,24,0.00,,,0.00,VWS V14.01,2013-01-30 16:20:00,
2013-01-30 10:25:00,14.9,-15.4,30.20,NW,323,8.7,12.8,24,0.00,,,0.00,VWS V14.01,2013-01-30 16:25:00,
2013-01-30 10:30:00,14.9,-15.4,30.20,NNW,345,11.9,11.9,24,0.00,,,0.00,VWS V14.01,2013-01-30 16:30:00,
2013-01-30 10:36:00,14.9,-15.4,30.20,NNW,335,8.7,11.4,24,0.00,,,0.00,VWS V14.01,2013-01-30 16:36:00,
2013-01-30 10:41:00,14.7,-15.5,30.20,NW,318,8.7,10.5,24,0.00,,,0.00,VWS V14.01,2013-01-30 16:41:00,
2013-01-30 10:46:00,14.7,-15.5,30.20,NW,325,9.6,17.0,24,0.00,,,0.00,VWS V14.01,2013-01-30 16:46:00,
2013-01-30 10:51:00,14.5,-15.7,30.20,North,4,10.5,17.9,24,0.00,,,0.00,VWS V14.01,2013-01-30 16:51:00,
2013-01-30 10:56:00,14.5,-15.7,30.20,NNW,340,13.2,17.0,24,0.00,,,0.00,VWS V14.01,2013-01-30 16:56:00,
2013-01-30 11:01:00,14.5,-15.7,30.20,NW,312,15.4,16.8,24,0.00,,,0.00,VWS V14.01,2013-01-30 17:01:00,
2013-01-30 11:06:00,14.7,-15.5,30.20,NNW,333,11.0,11.0,24,0.00,,,0.00,VWS V14.01,2013-01-30 17:06:00,
2013-01-30 11:11:00,14.5,-15.7,30.17,North,349,8.3,11.0,24,0.00,,,0.00,VWS V14.01,2013-01-30 17:11:00,
2013-01-30 11:16:00,14.5,-15.7,30.17,NNW,333,10.5,10.5,24,0.00,,,0.00,VWS V14.01,2013-01-30 17:16:00,
2013-01-30 11:21:00,14.4,-15.8,30.17,NNW,328,14.1,15.4,24,0.00,,,0.00,VWS V14.01,2013-01-30 17:21:00,
2013-01-30 11:26:00,14.4,-15.8,30.17,NNW,348,12.8,12.8,24,0.00,,,0.00,VWS V14.01,2013-01-30 17:26:00,
2013-01-30 11:31:00,14.4,-15.8,30.17,NW,308,19.2,19.2,24,0.00,,,0.00,VWS V14.01,2013-01-30 17:31:00,
2013-01-30 11:36:00,14.4,-15.8,30.17,NW,319,10.5,10.5,24,0.00,,,0.00,VWS V14.01,2013-01-30 17:36:00,
2013-01-30 11:41:00,14.4,-18.4,30.17,NW,323,13.2,15.0,21,0.00,,,0.00,VWS V14.01,2013-01-30 17:41:00,
2013-01-30 11:46:00,14.5,-15.7,30.17,North,353,6.3,7.6,24,0.00,,,0.00,VWS V14.01,2013-01-30 17:46:00,
2013-01-30 11:51:00,14.5,-18.3,30.17,NNW,337,16.8,16.8,21,0.00,,,0.00,VWS V14.01,2013-01-30 17:51:00,
2013-01-30 11:57:00,14.4,-18.4,30.17,North,353,15.0,16.8,21,0.00,,,0.00,VWS V14.01,2013-01-30 17:57:00,
2013-01-30 12:02:00,14.2,-18.6,30.17,NNW,327,15.0,19.2,21,0.00,,,0.00,VWS V14.01,2013-01-30 18:02:00,
2013-01-30 12:07:00,14.2,-18.6,30.17,North,357,13.6,22.4,21,0.00,,,0.00,VWS V14.01,2013-01-30 18:07:00,
2013-01-30 12:12:00,14.4,-15.8,30.17,NNW,338,10.5,12.3,24,0.00,,,0.00,VWS V14.01,2013-01-30 18:12:00,
2013-01-30 12:17:00,14.2,-16.0,30.17,North,0,10.1,19.7,24,0.00,,,0.00,VWS V14.01,2013-01-30 18:17:00,
2013-01-30 12:22:00,14.2,-16.0,30.17,NNW,340,11.9,14.5,24,0.00,,,0.00,VWS V14.01,2013-01-30 18:22:00,
2013-01-30 12:27:00,14.4,-15.8,30.17,North,350,8.1,13.2,24,0.00,,,0.00,VWS V14.01,2013-01-30 18:27:00,
2013-01-30 12:32:00,14.5,-15.7,30.17,NW,314,21.9,21.9,24,0.00,,,0.00,VWS V14.01,2013-01-30 18:32:00,
2013-01-30 12:37:00,14.4,-15.8,30.17,NW,316,12.8,13.2,24,0.00,,,0.00,VWS V14.01,2013-01-30 18:37:00,
2013-01-30 12:42:00,14.4,-15.8,30.17,NNW,342,17.4,17.4,24,0.00,,,0.00,VWS V14.01,2013-01-30 18:42:00,
2013-01-30 12:47:00,14.4,-15.8,30.17,NW,325,13.6,19.2,24,0.00,,,0.00,VWS V14.01,2013-01-30 18:47:00,
2013-01-30 12:52:00,14.4,-18.4,30.17,North,0,14.5,24.6,21,0.00,,,0.00,VWS V14.01,2013-01-30 18:52:00,
2013-01-30 12:57:00,14.4,-15.8,30.17,NNW,344,8.7,12.8,24,0.00,,,0.00,VWS V14.01,2013-01-30 18:57:00,
2013-01-30 13:02:00,14.4,-15.8,30.17,WNW,300,16.3,16.3,24,0.00,,,0.00,VWS V14.01,2013-01-30 19:02:00,
2013-01-30 13:07:00,14.4,-15.8,30.17,NNW,341,15.0,15.0,24,0.00,,,0.00,VWS V14.01,2013-01-30 19:07:00,
2013-01-30 13:12:00,14.0,-17.8,30.17,WNW,297,13.2,13.2,22,0.00,,,0.00,VWS V14.01,2013-01-30 19:12:00,
2013-01-30 13:17:00,13.8,-18.0,30.17,WNW,303,15.4,16.3,22,0.00,,,0.00,VWS V14.01,2013-01-30 19:17:00,
2013-01-30 13:23:00,13.6,-18.1,30.17,NNE,19,13.6,22.8,22,0.00,,,0.00,VWS V14.01,2013-01-30 19:23:00,
2013-01-30 13:28:00,13.8,-18.0,30.17,NNW,340,9.2,11.0,22,0.00,,,0.00,VWS V14.01,2013-01-30 19:28:00,
2013-01-30 13:33:00,13.6,-18.1,30.17,NNW,344,8.1,13.2,22,0.00,,,0.00,VWS V14.01,2013-01-30 19:33:00,
2013-01-30 13:38:00,13.6,-18.1,30.17,NNW,336,11.0,19.7,22,0.00,,,0.00,VWS V14.01,2013-01-30 19:38:00,
2013-01-30 13:43:00,13.6,-18.1,30.17,NNW,327,13.2,13.2,22,0.00,,,0.00,VWS V14.01,2013-01-30 19:43:00,
2013-01-30 13:48:00,13.8,-18.0,30.17,NNW,329,17.4,24.2,22,0.00,,,0.00,VWS V14.01,2013-01-30 19:48:00,
2013-01-30 13:53:00,13.8,-18.0,30.17,NNW,346,14.5,17.4,22,0.00,,,0.00,VWS V14.01,2013-01-30 19:53:00,
2013-01-30 13:58:00,13.8,-18.0,30.17,NNW,337,16.3,16.8,22,0.00,,,0.00,VWS V14.01,2013-01-30 19:58:00,
2013-01-30 14:03:00,13.8,-18.0,30.17,NW,326,17.4,20.6,22,0.00,,,0.00,VWS V14.01,2013-01-30 20:03:00,
2013-01-30 14:08:00,14.2,-18.6,30.17,NNW,345,11.0,15.0,21,0.00,,,0.00,VWS V14.01,2013-01-30 20:08:00,
2013-01-30 14:13:00,14.2,-18.6,30.17,NNW,329,14.1,19.7,21,0.00,,,0.00,VWS V14.01,2013-01-30 20:13:00,
2013-01-30 14:18:00,14.2,-18.6,30.17,NNW,345,13.2,19.7,21,0.00,,,0.00,VWS V14.01,2013-01-30 20:18:00,
2013-01-30 14:23:00,14.4,-18.4,30.17,NNW,333,13.2,13.2,21,0.00,,,0.00,VWS V14.01,2013-01-30 20:23:00,
2013-01-30 14:28:00,14.4,-18.4,30.17,NNW,341,12.3,17.4,21,0.00,,,0.00,VWS V14.01,2013-01-30 20:28:00,
2013-01-30 14:33:00,14.4,-18.4,30.17,NNW,345,11.9,17.0,21,0.00,,,0.00,VWS V14.01,2013-01-30 20:33:00,
2013-01-30 14:38:00,14.5,-18.3,30.17,NW,318,15.9,16.8,21,0.00,,,0.00,VWS V14.01,2013-01-30 20:38:00,
2013-01-30 14:43:00,14.5,-18.3,30.17,NNW,332,17.0,19.7,21,0.00,,,0.00,VWS V14.01,2013-01-30 20:43:00,
2013-01-30 14:48:00,14.5,-18.3,30.17,NNW,344,21.0,22.8,21,0.00,,,0.00,VWS V14.01,2013-01-30 20:48:00,
2013-01-30 14:53:00,14.5,-18.3,30.17,NNW,342,10.5,15.0,21,0.00,,,0.00,VWS V14.01,2013-01-30 20:53:00,
2013-01-30 14:58:00,14.9,-18.0,30.17,NW,320,15.4,17.0,21,0.00,,,0.00,VWS V14.01,2013-01-30 20:58:00,
2013-01-30 15:03:00,15.1,-17.8,30.17,NW,316,10.5,15.4,21,0.00,,,0.00,VWS V14.01,2013-01-30 21:03:00,
2013-01-30 15:08:00,15.1,-17.8,30.17,NNW,342,20.6,20.6,21,0.00,,,0.00,VWS V14.01,2013-01-30 21:08:00,
2013-01-30 15:13:00,15.1,-17.8,30.17,NNW,329,15.4,20.1,21,0.00,,,0.00,VWS V14.01,2013-01-30 21:13:00,
2013-01-30 15:18:00,15.1,-17.8,30.17,WNW,288,14.1,19.2,21,0.00,,,0.00,VWS V14.01,2013-01-30 21:18:00,
2013-01-30 15:23:00,15.1,-17.8,30.17,North,353,10.5,21.0,21,0.00,,,0.00,VWS V14.01,2013-01-30 21:23:00,
2013-01-30 15:28:00,15.1,-17.8,30.17,NW,326,12.8,13.6,21,0.00,,,0.00,VWS V14.01,2013-01-30 21:28:00,
2013-01-30 15:33:00,15.1,-17.8,30.17,NNW,329,14.5,15.0,21,0.00,,,0.00,VWS V14.01,2013-01-30 21:33:00,
2013-01-30 15:38:00,14.9,-18.0,30.17,NNW,344,8.1,16.3,21,0.00,,,0.00,VWS V14.01,2013-01-30 21:38:00,
2013-01-30 15:43:00,14.9,-15.4,30.17,NW,321,6.3,17.9,24,0.00,,,0.00,VWS V14.01,2013-01-30 21:43:00,
2013-01-30 15:48:00,14.5,-18.3,30.17,NNW,343,15.4,19.7,21,0.00,,,0.00,VWS V14.01,2013-01-30 21:48:00,
2013-01-30 15:53:00,14.4,-18.4,30.17,NNW,329,14.5,21.0,21,0.00,,,0.00,VWS V14.01,2013-01-30 21:53:00,
2013-01-30 15:58:00,14.4,-18.4,30.17,NW,314,17.4,17.4,21,0.00,,,0.00,VWS V14.01,2013-01-30 21:58:00,
2013-01-30 16:03:00,14.2,-18.6,30.17,NNW,331,21.5,21.5,21,0.00,,,0.00,VWS V14.01,2013-01-30 22:03:00,
2013-01-30 16:08:00,14.4,-18.4,30.17,NNW,345,7.6,17.4,21,0.00,,,0.00,VWS V14.01,2013-01-30 22:08:00,
2013-01-30 16:13:00,14.2,-18.6,30.17,NW,324,13.2,19.2,21,0.00,,,0.00,VWS V14.01,2013-01-30 22:13:00,
2013-01-30 16:18:00,14.2,-16.0,30.17,NW,308,8.7,12.3,24,0.00,,,0.00,VWS V14.01,2013-01-30 22:18:00,
2013-01-30 16:23:00,14.0,-16.1,30.17,NW,316,15.4,17.4,24,0.00,,,0.00,VWS V14.01,2013-01-30 22:23:00,
2013-01-30 16:28:00,14.2,-16.0,30.17,West,279,15.0,18.8,24,0.00,,,0.00,VWS V14.01,2013-01-30 22:28:00,
2013-01-30 16:33:00,14.2,-18.6,30.17,NW,305,12.3,24.2,21,0.00,,,0.00,VWS V14.01,2013-01-30 22:33:00,
2013-01-30 16:38:00,14.2,-18.6,30.17,West,280,15.0,16.8,21,0.00,,,0.00,VWS V14.01,2013-01-30 22:38:00,
2013-01-30 16:43:00,14.0,-16.1,30.20,NW,308,15.4,15.4,24,0.00,,,0.00,VWS V14.01,2013-01-30 22:43:00,
2013-01-30 16:48:00,13.8,-16.3,30.20,West,277,5.8,10.5,24,0.00,,,0.00,VWS V14.01,2013-01-30 22:48:00,
2013-01-30 16:53:00,13.8,-16.3,30.20,NW,315,12.3,15.0,24,0.00,,,0.00,VWS V14.01,2013-01-30 22:53:00,
2013-01-30 16:58:00,13.6,-16.4,30.20,NW,325,14.5,15.4,24,0.00,,,0.00,VWS V14.01,2013-01-30 22:58:00,
2013-01-30 17:03:00,13.5,-16.6,30.20,WNW,298,15.9,17.9,24,0.00,,,0.00,VWS V14.01,2013-01-30 23:03:00,
2013-01-30 17:08:00,13.3,-16.8,30.20,WNW,287,8.3,14.5,24,0.00,,,0.00,VWS V14.01,2013-01-30 23:08:00,
2013-01-30 17:13:00,12.9,-17.1,30.20,NNW,343,12.8,15.4,24,0.00,,,0.00,VWS V14.01,2013-01-30 23:13:00,
2013-01-30 17:18:00,12.9,-17.1,30.20,NW,316,11.9,15.0,24,0.00,,,0.00,VWS V14.01,2013-01-30 23:18:00,
2013-01-30 17:23:00,12.7,-17.2,30.20,NW,314,15.0,15.0,24,0.00,,,0.00,VWS V14.01,2013-01-30 23:23:00,
2013-01-30 17:28:00,12.6,-17.4,30.20,NNW,329,9.2,12.8,24,0.00,,,0.00,VWS V14.01,2013-01-30 23:28:00,
2013-01-30 17:33:00,12.6,-17.4,30.20,NNW,346,12.3,14.5,24,0.00,,,0.00,VWS V14.01,2013-01-30 23:33:00,
2013-01-30 17:38:00,12.2,-17.7,30.20,NNW,337,15.4,19.7,24,0.00,,,0.00,VWS V14.01,2013-01-30 23:38:00,
2013-01-30 17:43:00,12.2,-17.7,30.20,WNW,303,8.7,15.9,24,0.00,,,0.00,VWS V14.01,2013-01-30 23:43:00,
2013-01-30 17:48:00,12.2,-17.7,30.20,WNW,284,7.6,10.1,24,0.00,,,0.00,VWS V14.01,2013-01-30 23:48:00,
2013-01-30 17:53:00,12.2,-17.7,30.20,NW,320,11.0,12.8,24,0.00,,,0.00,VWS V14.01,2013-01-30 23:53:00,
2013-01-30 17:58:00,12.0,-17.8,30.20,NNW,335,8.1,13.2,24,0.00,,,0.00,VWS V14.01,2013-01-30 23:58:00,
2013-01-30 18:03:00,12.0,-17.8,30.20,NNW,329,8.7,13.2,24,0.00,,,0.00,VWS V14.01,2013-01-31 00:03:00,
2013-01-30 18:08:00,12.0,-17.8,30.20,NW,312,12.8,12.8,24,0.00,,,0.00,VWS V14.01,2013-01-31 00:08:00,
2013-01-30 18:13:00,11.8,-18.0,30.20,WNW,293,6.3,12.8,24,0.00,,,0.00,VWS V14.01,2013-01-31 00:13:00,
2013-01-30 18:18:00,11.8,-18.0,30.20,NW,308,7.6,7.6,24,0.00,,,0.00,VWS V14.01,2013-01-31 00:18:00,
2013-01-30 18:23:00,11.8,-18.0,30.20,North,349,12.3,16.8,24,0.00,,,0.00,VWS V14.01,2013-01-31 00:23:00,
2013-01-30 18:28:00,11.8,-18.0,30.20,NW,308,8.7,15.0,24,0.00,,,0.00,VWS V14.01,2013-01-31 00:28:00,
2013-01-30 18:33:00,11.7,-18.1,30.20,NW,316,8.7,12.3,24,0.00,,,0.00,VWS V14.01,2013-01-31 00:33:00,
2013-01-30 18:38:00,11.7,-18.1,30.20,NNW,330,7.2,11.0,24,0.00,,,0.00,VWS V14.01,2013-01-31 00:38:00,
2013-01-30 18:43:00,11.7,-18.1,30.20,NW,320,8.3,10.5,24,0.00,,,0.00,VWS V14.01,2013-01-31 00:43:00,
2013-01-30 18:48:00,11.7,-18.1,30.20,WNW,297,8.3,11.0,24,0.00,,,0.00,VWS V14.01,2013-01-31 00:48:00,
2013-01-30 18:53:00,11.7,-18.1,30.20,WNW,286,5.8,11.0,24,0.00,,,0.00,VWS V14.01,2013-01-31 00:53:00,
2013-01-30 18:58:00,11.7,-18.1,30.20,NW,312,8.1,8.1,24,0.00,,,0.00,VWS V14.01,2013-01-31 00:58:00,
2013-01-30 19:03:00,11.5,-18.3,30.20,NW,312,10.5,13.2,24,0.00,,,0.00,VWS V14.01,2013-01-31 01:03:00,
2013-01-30 19:08:00,11.5,-18.3,30.20,NNW,328,8.1,12.3,24,0.00,,,0.00,VWS V14.01,2013-01-31 01:08:00,
2013-01-30 19:13:00,11.3,-18.5,30.20,NW,314,11.9,15.4,24,0.00,,,0.00,VWS V14.01,2013-01-31 01:13:00,
2013-01-30 19:18:00,11.3,-18.5,30.20,NW,313,10.5,12.8,24,0.00,,,0.00,VWS V14.01,2013-01-31 01:18:00,
2013-01-30 19:23:00,11.3,-18.5,30.20,NNW,341,13.2,13.2,24,0.00,,,0.00,VWS V14.01,2013-01-31 01:23:00,
2013-01-30 19:28:00,11.3,-18.5,30.20,WNW,296,12.8,12.8,24,0.00,,,0.00,VWS V14.01,2013-01-31 01:28:00,
2013-01-30 19:33:00,11.1,-18.6,30.20,WNW,298,8.7,15.0,24,0.00,,,0.00,VWS V14.01,2013-01-31 01:33:00,
2013-01-30 19:38:00,10.9,-18.8,30.20,NW,322,8.3,13.2,24,0.00,,,0.00,VWS V14.01,2013-01-31 01:38:00,
2013-01-30 19:43:00,10.9,-18.8,30.20,NW,323,5.8,8.3,24,0.00,,,0.00,VWS V14.01,2013-01-31 01:43:00,
2013-01-30 19:48:00,10.9,-18.8,30.20,NW,313,8.3,13.2,24,0.00,,,0.00,VWS V14.01,2013-01-31 01:48:00,
2013-01-30 19:53:00,10.8,-18.9,30.20,NW,325,10.5,11.0,24,0.00,,,0.00,VWS V14.01,2013-01-31 01:53:00,
2013-01-30 19:58:00,10.8,-18.9,30.20,WNW,288,16.3,16.3,24,0.00,,,0.00,VWS V14.01,2013-01-31 01:58:00,
2013-01-30 20:03:00,10.8,-18.9,30.20,NW,312,11.0,15.4,24,0.00,,,0.00,VWS V14.01,2013-01-31 02:03:00,
2013-01-30 20:08:00,10.6,-19.1,30.20,WSW,245,8.3,10.5,24,0.00,,,0.00,VWS V14.01,2013-01-31 02:08:00,
2013-01-30 20:13:00,10.6,-19.1,30.20,WNW,291,3.6,11.0,24,0.00,,,0.00,VWS V14.01,2013-01-31 02:13:00,
2013-01-30 20:18:00,10.4,-19.2,30.20,WNW,301,12.8,12.8,24,0.00,,,0.00,VWS V14.01,2013-01-31 02:18:00,
2013-01-30 20:23:00,10.2,-19.4,30.20,WNW,285,10.5,15.4,24,0.00,,,0.00,VWS V14.01,2013-01-31 02:23:00,
2013-01-30 20:28:00,10.2,-19.4,30.20,WNW,298,8.3,10.5,24,0.00,,,0.00,VWS V14.01,2013-01-31 02:28:00,
2013-01-30 20:33:00,10.2,-19.4,30.20,WNW,294,8.7,11.0,24,0.00,,,0.00,VWS V14.01,2013-01-31 02:33:00,
2013-01-30 20:38:00,10.2,-19.4,30.20,WNW,294,11.0,15.4,24,0.00,,,0.00,VWS V14.01,2013-01-31 02:38:00,
2013-01-30 20:43:00,10.0,-19.5,30.23,NW,315,9.6,12.8,24,0.00,,,0.00,VWS V14.01,2013-01-31 02:43:00,
2013-01-30 20:48:00,10.0,-19.5,30.23,West,271,8.3,12.3,24,0.00,,,0.00,VWS V14.01,2013-01-31 02:48:00,
2013-01-30 20:53:00,9.9,-19.7,30.23,WNW,303,8.1,12.8,24,0.00,,,0.00,VWS V14.01,2013-01-31 02:53:00,
2013-01-30 20:58:00,9.9,-19.7,30.23,NNW,340,7.2,19.7,24,0.00,,,0.00,VWS V14.01,2013-01-31 02:58:00,
2013-01-30 21:03:00,9.7,-19.9,30.23,WNW,289,15.4,16.8,24,0.00,,,0.00,VWS V14.01,2013-01-31 03:03:00,
2013-01-30 21:08:00,9.7,-19.9,30.23,NW,324,12.8,17.4,24,0.00,,,0.00,VWS V14.01,2013-01-31 03:08:00,
2013-01-30 21:13:00,9.7,-19.9,30.23,North,2,14.1,15.4,24,0.00,,,0.00,VWS V14.01,2013-01-31 03:13:00,
2013-01-30 21:18:00,9.5,-20.0,30.23,NW,306,15.4,21.0,24,0.00,,,0.00,VWS V14.01,2013-01-31 03:18:00,
2013-01-30 21:23:00,9.5,-20.0,30.23,NNW,334,7.6,12.8,24,0.00,,,0.00,VWS V14.01,2013-01-31 03:23:00,
2013-01-30 21:28:00,9.3,-20.2,30.23,NW,312,14.5,14.5,24,0.00,,,0.00,VWS V14.01,2013-01-31 03:28:00,
2013-01-30 21:33:00,9.3,-20.2,30.23,NNW,342,11.0,11.0,24,0.00,,,0.00,VWS V14.01,2013-01-31 03:33:00,
2013-01-30 21:38:00,9.1,-20.3,30.23,NNW,341,6.3,11.0,24,0.00,,,0.00,VWS V14.01,2013-01-31 03:38:00,
2013-01-30 21:43:00,9.1,-20.3,30.23,NNW,335,8.1,12.3,24,0.00,,,0.00,VWS V14.01,2013-01-31 03:43:00,
2013-01-30 21:48:00,9.1,-20.3,30.23,NW,324,11.4,13.2,24,0.00,,,0.00,VWS V14.01,2013-01-31 03:48:00,
2013-01-30 21:53:00,9.1,-20.3,30.23,West,267,8.1,13.2,24,0.00,,,0.00,VWS V14.01,2013-01-31 03:53:00,
2013-01-30 21:58:00,9.1,-20.3,30.23,NW,315,12.8,12.8,24,0.00,,,0.00,VWS V14.01,2013-01-31 03:58:00,
2013-01-30 22:03:00,9.1,-20.3,30.23,NW,310,7.6,11.0,24,0.00,,,0.00,VWS V14.01,2013-01-31 04:03:00,
2013-01-30 22:08:00,9.0,-20.5,30.23,NNW,343,8.1,11.9,24,0.00,,,0.00,VWS V14.01,2013-01-31 04:08:00,
2013-01-30 22:13:00,9.0,-20.5,30.23,WNW,295,11.0,15.9,24,0.00,,,0.00,VWS V14.01,2013-01-31 04:13:00,
2013-01-30 22:18:00,8.8,-20.6,30.23,NW,305,8.3,12.8,24,0.00,,,0.00,VWS V14.01,2013-01-31 04:18:00,
2013-01-30 22:23:00,8.6,-20.8,30.23,WNW,301,7.6,10.5,24,0.00,,,0.00,VWS V14.01,2013-01-31 04:23:00,